createdAt,value
2022-11-16T00:02:29.323Z,25.02
2022-11-16T00:04:55.900Z,23.85
2022-11-16T00:07:22.300Z,25.25
2022-11-16T00:09:48.767Z,26.17
2022-11-16T00:12:15.144Z,27.80
2022-11-16T00:14:41.511Z,27.90
2022-11-16T00:17:07.915Z,26.05
2022-11-16T00:19:34.344Z,26.73
2022-11-16T00:22:00.809Z,26.67
2022-11-16T00:24:27.269Z,27.17
2022-11-16T00:26:55.026Z,25.55
2022-11-16T00:29:24.331Z,22.25
2022-11-16T00:31:51.197Z,25.88
2022-11-16T00:34:18.419Z,24.75
2022-11-16T00:36:45.682Z,25.50
2022-11-16T00:39:16.639Z,28.17
2022-11-16T00:41:43.782Z,26.08
2022-11-16T00:44:10.812Z,23.58
2022-11-16T00:46:37.249Z,25.98
2022-11-16T00:49:04.938Z,24.07
2022-11-16T00:51:31.898Z,23.50
2022-11-16T00:53:58.279Z,27.77
2022-11-16T00:56:24.671Z,26.48
2022-11-16T00:58:51.078Z,27.17
2022-11-16T01:01:18.150Z,27.10
2022-11-16T01:03:44.975Z,25.35
2022-11-16T01:06:13.367Z,23.45
2022-11-16T01:08:40.892Z,23.80
2022-11-16T01:11:08.148Z,25.17
2022-11-16T01:13:34.560Z,24.50
2022-11-16T01:16:00.974Z,25.27
2022-11-16T01:18:27.379Z,23.38
2022-11-16T01:20:53.779Z,24.25
2022-11-16T01:23:20.193Z,24.27
2022-11-16T01:25:46.619Z,27.60
2022-11-16T01:28:13.039Z,28.48
2022-11-16T01:30:39.488Z,26.85
2022-11-16T01:33:05.897Z,27.38
2022-11-16T01:35:32.292Z,26.45
2022-11-16T01:37:58.680Z,27.17
2022-11-16T01:40:27.408Z,27.98
2022-11-16T01:42:53.834Z,33.30
2022-11-16T01:45:28.477Z,33.38
2022-11-16T01:47:55.158Z,31.42
2022-11-16T01:50:22.718Z,30.53
2022-11-16T01:52:54.433Z,31.52
2022-11-16T01:55:23.164Z,33.00
2022-11-16T01:57:50.355Z,31.10
2022-11-16T02:00:17.685Z,26.52
2022-11-16T02:02:44.338Z,27.53
2022-11-16T02:05:14.011Z,25.20
2022-11-16T02:07:57.586Z,27.92
2022-11-16T02:10:34.346Z,28.77
2022-11-16T02:13:16.099Z,27.50
2022-11-16T02:16:04.320Z,22.83
2022-11-16T02:18:42.532Z,28.50
2022-11-16T02:21:30.605Z,24.80
2022-11-16T02:24:18.863Z,23.23
2022-11-16T02:27:16.436Z,26.95
2022-11-16T02:29:47.488Z,25.60
2022-11-16T02:32:31.460Z,25.75
2022-11-16T02:35:15.635Z,25.83
2022-11-16T02:37:57.812Z,26.48
2022-11-16T02:40:27.473Z,27.70
2022-11-16T02:43:17.735Z,26.53
2022-11-16T02:45:48.647Z,28.13
2022-11-16T02:48:22.465Z,28.25
2022-11-16T02:50:51.783Z,30.17
2022-11-16T02:53:20.460Z,34.78
2022-11-16T02:55:46.916Z,32.23
2022-11-16T02:58:16.960Z,30.65
2022-11-16T03:00:46.391Z,34.47
2022-11-16T03:03:35.281Z,37.20
2022-11-16T03:06:24.645Z,38.47
2022-11-16T03:09:14.392Z,35.27
2022-11-16T03:11:47.463Z,35.22
2022-11-16T03:14:18.617Z,37.20
2022-11-16T03:16:50.957Z,37.25
2022-11-16T03:19:25.229Z,39.03
2022-11-16T03:22:02.817Z,42.43
2022-11-16T03:24:29.500Z,48.60
2022-11-16T03:27:08.838Z,46.47
2022-11-16T03:30:07.555Z,40.03
2022-11-16T03:32:43.095Z,39.70
2022-11-16T03:35:14.660Z,36.00
2022-11-16T03:37:43.003Z,34.75
2022-11-16T03:40:11.535Z,33.20
2022-11-16T03:42:39.489Z,33.92
2022-11-16T03:45:07.232Z,32.35
2022-11-16T03:47:33.846Z,32.47
2022-11-16T03:50:00.297Z,30.92
2022-11-16T03:52:26.874Z,30.42
2022-11-16T03:54:53.376Z,25.55
2022-11-16T03:57:19.790Z,27.02
2022-11-16T03:59:46.204Z,26.20
2022-11-16T04:02:12.704Z,24.50
2022-11-16T04:04:39.072Z,21.55
2022-11-16T04:07:05.515Z,17.80
2022-11-16T04:09:31.917Z,20.08
2022-11-16T04:11:58.292Z,20.90
2022-11-16T04:14:27.065Z,15.27
2022-11-16T04:16:54.529Z,15.18
2022-11-16T04:19:21.123Z,17.10
2022-11-16T04:21:53.421Z,15.93
2022-11-16T04:24:23.530Z,18.27
2022-11-16T04:26:54.624Z,14.10
2022-11-16T04:29:21.081Z,14.65
2022-11-16T04:31:47.484Z,11.25
2022-11-16T04:34:13.856Z,12.13
2022-11-16T04:36:40.262Z,12.90
2022-11-16T04:39:06.663Z,10.38
2022-11-16T04:41:34.074Z,11.50
2022-11-16T04:44:00.549Z,13.23
2022-11-16T04:46:27.016Z,12.02
2022-11-16T04:48:53.405Z,16.67
2022-11-16T04:51:19.803Z,13.90
2022-11-16T04:53:46.188Z,15.20
2022-11-16T04:56:12.583Z,13.07
2022-11-16T04:58:38.962Z,14.20
2022-11-16T05:01:05.486Z,14.70
2022-11-16T05:03:32.059Z,14.68
2022-11-16T05:05:58.556Z,11.30
2022-11-16T05:08:24.932Z,13.60
2022-11-16T05:10:51.772Z,15.48
2022-11-16T05:13:18.240Z,9.43
2022-11-16T05:15:47.718Z,14.90
2022-11-16T05:18:14.178Z,12.20
2022-11-16T05:20:40.629Z,14.30
2022-11-16T05:23:07.015Z,14.82
2022-11-16T05:25:36.683Z,12.03
2022-11-16T05:28:03.641Z,12.10
2022-11-16T05:30:30.024Z,14.70
2022-11-16T05:32:56.403Z,14.57
2022-11-16T05:35:22.869Z,13.60
2022-11-16T05:37:49.229Z,9.73
2022-11-16T05:40:15.883Z,15.38
2022-11-16T05:42:42.320Z,14.63
2022-11-16T05:45:09.104Z,17.13
2022-11-16T05:47:35.602Z,14.23
2022-11-16T05:50:02.046Z,13.03
2022-11-16T05:52:28.456Z,14.10
2022-11-16T05:54:54.943Z,13.77
2022-11-16T05:57:21.358Z,19.17
2022-11-16T05:59:47.768Z,18.20
2022-11-16T06:02:14.275Z,16.93
2022-11-16T06:04:40.674Z,14.90
2022-11-16T06:07:07.143Z,13.65
2022-11-16T06:09:33.620Z,14.35
2022-11-16T06:12:00.038Z,15.90
2022-11-16T06:14:26.451Z,12.30
2022-11-16T06:16:52.888Z,11.63
2022-11-16T06:19:19.319Z,12.52
2022-11-16T06:21:45.737Z,12.30
2022-11-16T06:24:12.169Z,17.20
2022-11-16T06:26:38.661Z,14.57
2022-11-16T06:29:05.152Z,14.45
2022-11-16T06:31:31.577Z,14.30
2022-11-16T06:33:58.049Z,16.05
2022-11-16T06:36:24.667Z,13.73
2022-11-16T06:38:51.142Z,18.77
2022-11-16T06:41:17.665Z,15.10
2022-11-16T06:43:44.401Z,15.63
2022-11-16T06:46:10.817Z,17.40
2022-11-16T06:48:37.498Z,14.80
2022-11-16T06:51:04.325Z,18.03
2022-11-16T06:53:30.718Z,19.08
2022-11-16T06:56:01.951Z,23.08
2022-11-16T06:58:30.184Z,20.20
2022-11-16T07:00:56.846Z,19.50
2022-11-16T07:03:23.464Z,15.10
2022-11-16T07:05:49.907Z,19.90
2022-11-16T07:08:16.283Z,14.93
2022-11-16T07:10:42.729Z,19.08
2022-11-16T07:13:09.166Z,18.83
2022-11-16T07:15:35.564Z,17.27
2022-11-16T07:18:06.460Z,17.15
2022-11-16T07:20:33.815Z,17.92
2022-11-16T07:23:01.830Z,16.08
2022-11-16T07:25:28.864Z,19.20
2022-11-16T07:27:55.338Z,14.60
2022-11-16T07:30:22.402Z,18.45
2022-11-16T07:32:48.776Z,16.15
2022-11-16T07:35:15.231Z,18.05
2022-11-16T07:37:41.619Z,25.77
2022-11-16T07:40:08.757Z,16.40
2022-11-16T07:42:35.298Z,20.67
2022-11-16T07:45:01.727Z,18.27
2022-11-16T07:47:28.128Z,16.73
2022-11-16T07:49:54.547Z,23.50
2022-11-16T07:52:20.991Z,17.63
2022-11-16T07:54:47.385Z,16.92
2022-11-16T07:57:13.778Z,17.00
2022-11-16T07:59:40.158Z,20.52
2022-11-16T08:02:06.590Z,20.75
2022-11-16T08:04:33.042Z,19.10
2022-11-16T08:06:59.477Z,18.35
2022-11-16T08:09:25.929Z,18.70
2022-11-16T08:11:52.341Z,18.67
2022-11-16T08:14:18.773Z,17.95
2022-11-16T08:16:45.183Z,19.23
2022-11-16T08:19:11.565Z,14.43
2022-11-16T08:21:37.981Z,14.55
2022-11-16T08:24:04.799Z,19.27
2022-11-16T08:26:31.292Z,17.30
2022-11-16T08:28:57.765Z,17.33
2022-11-16T08:31:27.281Z,18.73
2022-11-16T08:33:54.183Z,17.77
2022-11-16T08:36:21.146Z,15.98
2022-11-16T08:38:49.700Z,15.30
2022-11-16T08:41:17.316Z,17.60
2022-11-16T08:43:44.135Z,14.60
2022-11-16T08:46:11.446Z,20.20
2022-11-16T08:48:38.253Z,16.40
2022-11-16T08:51:18.613Z,12.98
2022-11-16T08:53:45.977Z,18.60
2022-11-16T08:56:12.584Z,18.45
2022-11-16T08:58:40.394Z,19.63
2022-11-16T09:01:15.074Z,15.55
2022-11-16T09:03:42.366Z,37.08
2022-11-16T09:06:10.528Z,19.13
2022-11-16T09:08:40.087Z,17.33
2022-11-16T09:11:12.995Z,17.98
2022-11-16T09:13:39.890Z,17.13
2022-11-16T09:16:06.481Z,16.35
2022-11-16T09:18:34.167Z,14.63
2022-11-16T09:21:00.932Z,23.65
2022-11-16T09:23:28.148Z,15.68
2022-11-16T09:25:55.122Z,17.08
2022-11-16T09:28:22.325Z,12.10
2022-11-16T09:30:50.896Z,13.20
2022-11-16T09:33:17.418Z,12.25
2022-11-16T09:35:44.030Z,11.57
2022-11-16T09:38:12.653Z,13.57
2022-11-16T09:40:45.988Z,13.05
2022-11-16T09:43:18.251Z,17.17
2022-11-16T09:46:06.169Z,13.57
2022-11-16T09:48:37.337Z,10.02
2022-11-16T09:51:07.531Z,11.88
2022-11-16T09:53:52.934Z,13.52
2022-11-16T09:56:28.204Z,13.90
2022-11-16T09:58:59.240Z,9.13
2022-11-16T10:01:51.494Z,11.45
2022-11-16T10:04:47.615Z,11.48
2022-11-16T10:07:23.126Z,10.38
2022-11-16T10:09:49.795Z,11.23
2022-11-16T10:12:28.240Z,10.90
2022-11-16T10:15:16.444Z,12.90
2022-11-16T10:17:48.270Z,10.65
2022-11-16T10:20:45.091Z,11.93
2022-11-16T10:23:26.607Z,15.73
2022-11-16T10:25:57.666Z,34.30
2022-11-16T10:28:45.865Z,11.52
2022-11-16T10:31:26.195Z,12.80
2022-11-16T10:33:57.033Z,13.20
2022-11-16T10:36:25.824Z,10.90
2022-11-16T10:38:53.824Z,13.38
2022-11-16T10:41:30.339Z,13.23
2022-11-16T10:43:59.050Z,12.55
2022-11-16T10:46:40.311Z,10.13
2022-11-16T10:49:16.496Z,10.80
2022-11-16T10:51:43.159Z,12.80
2022-11-16T10:54:17.730Z,12.38
2022-11-16T10:56:49.355Z,9.60
2022-11-16T10:59:19.023Z,10.25
2022-11-16T11:01:50.218Z,10.33
2022-11-16T11:04:27.581Z,11.60
2022-11-16T11:07:02.415Z,9.20
2022-11-16T11:09:34.593Z,12.68
2022-11-16T11:12:02.557Z,8.93
2022-11-16T11:14:29.064Z,12.77
2022-11-16T11:16:55.589Z,11.93
2022-11-16T11:19:29.409Z,10.18
2022-11-16T11:22:00.657Z,10.98
2022-11-16T11:24:44.760Z,9.27
2022-11-16T11:27:12.255Z,11.17
2022-11-16T11:29:42.278Z,11.00
2022-11-16T11:32:20.759Z,11.52
2022-11-16T11:34:53.595Z,8.77
2022-11-16T11:37:25.336Z,11.38
2022-11-16T11:40:07.908Z,9.33
2022-11-16T11:42:34.396Z,12.80
2022-11-16T11:45:07.622Z,12.75
2022-11-16T11:47:58.956Z,11.75
2022-11-16T11:50:43.929Z,11.63
2022-11-16T11:53:10.282Z,11.27
2022-11-16T11:55:39.972Z,9.18
2022-11-16T11:58:13.743Z,9.80
2022-11-16T12:01:23.750Z,8.90
2022-11-16T12:04:16.437Z,10.45
2022-11-16T12:06:55.041Z,10.57
2022-11-16T12:09:27.293Z,11.38
2022-11-16T12:12:02.802Z,10.93
2022-11-16T12:14:47.122Z,8.50
2022-11-16T12:17:28.066Z,9.48
2022-11-16T12:20:13.288Z,11.67
2022-11-16T12:22:48.585Z,9.93
2022-11-16T12:25:23.152Z,11.07
2022-11-16T12:28:54.315Z,10.10
2022-11-16T12:31:43.025Z,9.18
2022-11-16T12:34:30.938Z,9.43
2022-11-16T12:37:09.592Z,9.77
2022-11-16T12:39:44.802Z,8.80
2022-11-16T12:42:55.681Z,10.07
2022-11-16T12:45:47.216Z,7.55
2022-11-16T12:48:23.554Z,7.93
2022-11-16T12:51:11.917Z,9.63
2022-11-16T12:54:06.243Z,8.90
2022-11-16T12:57:00.363Z,12.32
2022-11-16T13:00:08.621Z,11.43
2022-11-16T13:02:56.524Z,11.47
2022-11-16T13:05:37.928Z,10.55
2022-11-16T13:08:16.116Z,11.13
2022-11-16T13:10:46.244Z,10.18
2022-11-16T13:13:40.602Z,18.23
2022-11-16T13:16:07.256Z,16.87
2022-11-16T13:18:37.584Z,13.02
2022-11-16T13:21:16.045Z,11.65
2022-11-16T13:24:00.736Z,8.30
2022-11-16T13:26:40.598Z,9.30
2022-11-16T13:29:30.017Z,9.20
2022-11-16T13:32:32.118Z,10.98
2022-11-16T13:35:00.091Z,11.40
2022-11-16T13:37:38.629Z,9.32
2022-11-16T13:40:05.163Z,8.32
2022-11-16T13:42:38.884Z,8.47
2022-11-16T13:45:27.014Z,9.10
2022-11-16T13:47:56.800Z,10.60
2022-11-16T13:50:37.412Z,10.07
2022-11-16T13:56:00.659Z,11.30
2022-11-16T13:58:29.751Z,8.35
2022-11-16T14:01:04.364Z,12.10
2022-11-16T14:03:34.260Z,7.57
2022-11-16T14:06:00.844Z,9.63
2022-11-16T14:08:27.187Z,10.90
2022-11-16T14:10:53.630Z,10.07
2022-11-16T14:13:35.450Z,8.77
2022-11-16T14:16:17.167Z,9.27
2022-11-16T14:18:44.235Z,11.50
2022-11-16T14:21:19.715Z,10.67
2022-11-16T14:24:08.168Z,11.68
2022-11-16T14:26:53.739Z,9.80
2022-11-16T14:29:29.466Z,10.80
2022-11-16T14:31:59.030Z,12.15
2022-11-16T14:34:43.634Z,11.30
2022-11-16T14:37:35.483Z,13.77
2022-11-16T14:40:17.068Z,12.20
2022-11-16T14:43:15.477Z,33.47
2022-11-16T14:45:40.717Z,9.00
2022-11-16T14:48:20.134Z,10.87
2022-11-16T14:51:07.538Z,10.15
2022-11-16T14:53:41.257Z,10.85
2022-11-16T14:56:13.739Z,8.93
2022-11-16T14:58:51.239Z,8.55
2022-11-16T15:01:19.089Z,12.00
2022-11-16T15:03:55.706Z,9.65
2022-11-16T15:06:24.811Z,11.90
2022-11-16T15:08:59.416Z,8.45
2022-11-16T15:11:29.658Z,9.10
2022-11-16T15:13:56.183Z,12.27
2022-11-16T15:16:22.715Z,11.18
2022-11-16T15:18:59.842Z,11.43
2022-11-16T15:21:26.709Z,11.45
2022-11-16T15:24:23.319Z,11.75
2022-11-16T15:26:40.046Z,12.23
2022-11-16T15:29:13.301Z,14.68
2022-11-16T15:31:42.354Z,9.13
2022-11-16T15:34:13.243Z,11.20
2022-11-16T15:36:41.042Z,17.83
2022-11-16T15:39:22.932Z,19.43
2022-11-16T15:41:51.243Z,13.88
2022-11-16T15:44:20.179Z,10.85
2022-11-16T15:46:53.158Z,12.52
2022-11-16T15:49:29.776Z,10.90
2022-11-16T15:52:00.293Z,13.87
2022-11-16T15:54:34.922Z,11.25
2022-11-16T15:57:09.224Z,12.98
2022-11-16T15:59:37.385Z,10.60
2022-11-16T16:02:04.670Z,13.20
2022-11-16T16:04:31.209Z,16.10
2022-11-16T16:06:59.796Z,10.25
2022-11-16T16:09:27.870Z,9.77
2022-11-16T16:12:13.942Z,10.25
2022-11-16T16:14:40.408Z,8.68
2022-11-16T16:17:09.010Z,17.57
2022-11-16T16:19:35.355Z,14.82
2022-11-16T16:22:03.509Z,12.13
2022-11-16T16:24:38.222Z,13.98
2022-11-16T16:27:22.431Z,15.00
2022-11-16T16:29:51.166Z,17.50
2022-11-16T16:32:27.706Z,13.00
2022-11-16T16:34:56.463Z,17.00
2022-11-16T16:37:23.457Z,13.80
2022-11-16T16:39:49.859Z,12.80
2022-11-16T16:42:17.427Z,13.67
2022-11-16T16:44:45.065Z,15.82
2022-11-16T16:47:12.039Z,15.95
2022-11-16T16:49:38.772Z,18.08
2022-11-16T16:52:06.310Z,14.27
2022-11-16T16:54:33.007Z,12.97
2022-11-16T16:56:59.702Z,13.85
2022-11-16T16:59:26.107Z,17.52
2022-11-16T17:01:52.720Z,15.65
2022-11-16T17:04:19.628Z,14.10
2022-11-16T17:06:46.767Z,25.20
2022-11-16T17:09:13.891Z,12.57
2022-11-16T17:11:40.301Z,15.93
2022-11-16T17:14:06.720Z,15.75
2022-11-16T17:16:33.606Z,13.02
2022-11-16T17:19:00.099Z,18.20
2022-11-16T17:21:26.791Z,12.60
2022-11-16T17:23:54.182Z,16.13
2022-11-16T17:26:20.680Z,13.82
2022-11-16T17:28:47.519Z,12.98
2022-11-16T17:31:14.501Z,13.37
2022-11-16T17:33:42.133Z,14.38
2022-11-16T17:36:11.834Z,13.15
2022-11-16T17:38:38.854Z,14.55
2022-11-16T17:41:08.692Z,16.60
2022-11-16T17:43:35.851Z,15.90
2022-11-16T17:46:04.126Z,16.33
2022-11-16T17:48:30.602Z,16.67
2022-11-16T17:50:57.203Z,12.55
2022-11-16T17:53:25.280Z,11.07
2022-11-16T17:55:55.008Z,11.50
2022-11-16T17:58:21.750Z,21.02
2022-11-16T18:00:49.717Z,21.58
2022-11-16T18:03:16.384Z,16.45
2022-11-16T18:05:43.215Z,12.00
2022-11-16T18:08:09.897Z,13.37
2022-11-16T18:10:37.090Z,15.38
2022-11-16T18:13:05.183Z,13.07
2022-11-16T18:15:41.943Z,12.23
2022-11-16T18:18:08.914Z,13.60
2022-11-16T18:20:37.194Z,14.83
2022-11-16T18:23:04.668Z,14.57
2022-11-16T18:25:34.325Z,13.30
2022-11-16T18:28:00.713Z,14.63
2022-11-16T18:30:27.120Z,12.95
2022-11-16T18:32:54.072Z,16.87
2022-11-16T18:35:20.469Z,11.75
2022-11-16T18:37:46.893Z,16.15
2022-11-16T18:40:13.716Z,21.63
2022-11-16T18:42:40.132Z,21.95
2022-11-16T18:45:07.312Z,16.77
2022-11-16T18:47:34.198Z,26.65
2022-11-16T18:50:00.641Z,22.30
2022-11-16T18:52:27.080Z,18.35
2022-11-16T18:54:53.470Z,15.00
2022-11-16T18:57:19.912Z,15.47
2022-11-16T18:59:46.327Z,22.60
2022-11-16T19:02:12.807Z,21.05
2022-11-16T19:04:39.259Z,16.67
2022-11-16T19:07:06.157Z,15.93
2022-11-16T19:09:32.699Z,18.67
2022-11-16T19:11:59.245Z,16.00
2022-11-16T19:14:25.657Z,19.17
2022-11-16T19:16:56.968Z,19.05
2022-11-16T19:19:24.163Z,18.65
2022-11-16T19:21:50.609Z,14.37
2022-11-16T19:24:17.007Z,14.77
2022-11-16T19:26:43.522Z,13.55
2022-11-16T19:29:09.965Z,14.45
2022-11-16T19:31:36.387Z,15.73
2022-11-16T19:34:05.014Z,14.20
2022-11-16T19:36:33.161Z,13.60
2022-11-16T19:38:59.777Z,14.95
2022-11-16T19:41:27.280Z,17.55
2022-11-16T19:43:57.262Z,13.55
2022-11-16T19:46:23.973Z,13.77
2022-11-16T19:48:51.023Z,15.50
2022-11-16T19:51:20.741Z,12.30
2022-11-16T19:53:47.352Z,13.70
2022-11-16T19:56:15.987Z,16.95
2022-11-16T19:58:43.257Z,12.73
2022-11-16T20:01:18.698Z,13.95
2022-11-16T20:03:46.402Z,12.63
2022-11-16T20:06:18.922Z,12.45
2022-11-16T20:08:50.580Z,11.10
2022-11-16T20:11:19.582Z,13.63
2022-11-16T20:13:47.456Z,13.25
2022-11-16T20:16:15.489Z,13.07
2022-11-16T20:18:43.184Z,12.57
2022-11-16T20:21:16.357Z,14.30
2022-11-16T20:23:42.750Z,14.10
2022-11-16T20:26:11.391Z,11.88
2022-11-16T20:28:39.582Z,12.23
2022-11-16T20:31:12.327Z,10.95
2022-11-16T20:33:39.608Z,14.07
2022-11-16T20:36:08.743Z,10.17
2022-11-16T20:38:36.454Z,14.52
2022-11-16T20:41:14.014Z,9.93
2022-11-16T20:43:41.999Z,13.55
2022-11-16T20:46:10.680Z,11.77
2022-11-16T20:48:37.656Z,11.80
2022-11-16T20:51:05.343Z,10.07
2022-11-16T20:53:32.476Z,11.45
2022-11-16T20:55:59.415Z,12.93
2022-11-16T20:58:26.087Z,15.60
2022-11-16T21:00:52.510Z,11.53
2022-11-16T21:03:18.978Z,14.52
2022-11-16T21:05:50.102Z,11.73
2022-11-16T21:08:16.543Z,10.73
2022-11-16T21:10:43.000Z,13.07
2022-11-16T21:13:14.336Z,14.53
2022-11-16T21:15:40.732Z,11.15
2022-11-16T21:18:07.124Z,14.35
2022-11-16T21:20:33.881Z,15.02
2022-11-16T21:23:00.315Z,12.93
2022-11-16T21:25:26.834Z,13.90
2022-11-16T21:27:53.267Z,14.57
2022-11-16T21:30:19.853Z,15.02
2022-11-16T21:32:46.406Z,14.43
2022-11-16T21:35:12.771Z,19.13
2022-11-16T21:37:39.191Z,15.27
2022-11-16T21:40:06.081Z,16.48
2022-11-16T21:42:32.532Z,13.05
2022-11-16T21:44:58.954Z,15.45
2022-11-16T21:47:25.500Z,12.23
2022-11-16T21:50:16.891Z,18.87
2022-11-16T21:52:38.355Z,19.88
2022-11-16T21:55:05.198Z,12.07
2022-11-16T21:57:31.622Z,15.80
2022-11-16T21:59:57.999Z,14.10
2022-11-16T22:02:24.432Z,14.50
2022-11-16T22:04:50.836Z,15.82
2022-11-16T22:07:17.417Z,12.93
2022-11-16T22:09:43.869Z,12.73
2022-11-16T22:12:10.353Z,13.82
2022-11-16T22:14:36.805Z,13.47
2022-11-16T22:17:03.258Z,18.95
2022-11-16T22:19:29.665Z,11.88
2022-11-16T22:21:56.109Z,15.95
2022-11-16T22:24:22.619Z,12.25
2022-11-16T22:26:49.348Z,15.87
2022-11-16T22:29:15.742Z,12.25
2022-11-16T22:31:42.187Z,13.43
2022-11-16T22:34:08.608Z,14.52
2022-11-16T22:36:35.042Z,13.30
2022-11-16T22:39:01.419Z,10.40
2022-11-16T22:41:27.932Z,14.82
2022-11-16T22:43:54.566Z,13.45
2022-11-16T22:46:21.000Z,17.05
2022-11-16T22:48:47.549Z,15.23
2022-11-16T22:51:21.918Z,15.17
2022-11-16T22:54:02.234Z,12.63
2022-11-16T22:56:30.334Z,12.30
2022-11-16T22:58:56.908Z,9.07
2022-11-16T23:01:23.839Z,9.90
2022-11-16T23:03:50.829Z,11.27
2022-11-16T23:06:18.174Z,11.30
2022-11-16T23:08:44.642Z,11.02
2022-11-16T23:11:13.702Z,9.18
2022-11-16T23:13:40.096Z,12.80
2022-11-16T23:16:06.674Z,11.17
2022-11-16T23:18:33.057Z,11.90
2022-11-16T23:20:59.568Z,11.93
2022-11-16T23:23:26.130Z,12.18
2022-11-16T23:25:52.520Z,13.85
2022-11-16T23:28:19.759Z,11.53
2022-11-16T23:30:46.330Z,10.93
2022-11-16T23:33:12.926Z,10.57
2022-11-16T23:35:39.476Z,10.00
2022-11-16T23:38:07.541Z,8.77
2022-11-16T23:40:37.196Z,10.00
2022-11-16T23:43:05.022Z,9.63
2022-11-16T23:45:31.501Z,9.60
2022-11-16T23:47:57.917Z,10.95
2022-11-16T23:50:27.454Z,9.27
2022-11-16T23:52:54.183Z,13.10
2022-11-16T23:55:20.585Z,11.07
2022-11-16T23:57:47.067Z,10.48
